Dighton, Kansas
Current Conditions -  °F | °C
As of 12:54 AM on Friday 19 Dec 2014 (Local Time) from KGCK Reporting Station
Overcast Overcast  
Wind Chill: 29°   Ceiling: 1100
Heat Index: 33°   Visibility: 7mi
Dew Point: 31°   Wind: 5mph
Humidity: 92%   Direction: 220°SW
Pressure: 30.16"   Gusts: NA
Location:  38.48°N, 100.47°W
Report Text: KGCK 190654Z AUTO 22004KT 7SM OVC011 01/M01 A3016 RMK AO2 SLP230 T00061006
Loading
Personal Weather Stations






























Interactive Weather Map New forecast layout! Learn more

10-Day Weather Forecast

Advertisements
Track Severe Weather on mobile